sensor_id;sensor_type;location;lat;lon;timestamp;P1;durP1;ratioP1;P2;durP2;ratioP2
49840;SDS011;35738;49.890;5.930;2023-01-01T00:02:22;97.85;;;35.03;;
49840;SDS011;35738;49.890;5.930;2023-01-01T00:04:49;35.22;;;18.73;;
49840;SDS011;35738;49.890;5.930;2023-01-01T00:07:15;19.33;;;11.73;;
49840;SDS011;35738;49.890;5.930;2023-01-01T00:09:42;4.95;;;3.25;;
49840;SDS011;35738;49.890;5.930;2023-01-01T00:12:27;6.55;;;3.90;;
49840;SDS011;35738;49.890;5.930;2023-01-01T00:14:54;6.55;;;5.85;;
49840;SDS011;35738;49.890;5.930;2023-01-01T00:17:21;4.75;;;3.67;;
49840;SDS011;35738;49.890;5.930;2023-01-01T00:19:47;3.33;;;3.05;;
49840;SDS011;35738;49.890;5.930;2023-01-01T00:22:14;4.43;;;3.40;;
49840;SDS011;35738;49.890;5.930;2023-01-01T00:25:01;2.88;;;1.70;;
49840;SDS011;35738;49.890;5.930;2023-01-01T00:27:27;3.38;;;2.08;;
49840;SDS011;35738;49.890;5.930;2023-01-01T00:29:54;2.28;;;1.92;;
49840;SDS011;35738;49.890;5.930;2023-01-01T00:32:20;1.33;;;1.20;;
49840;SDS011;35738;49.890;5.930;2023-01-01T00:34:48;1.17;;;1.08;;
49840;SDS011;35738;49.890;5.930;2023-01-01T00:37:15;1.40;;;1.20;;
49840;SDS011;35738;49.890;5.930;2023-01-01T00:39:43;1.75;;;1.10;;
49840;SDS011;35738;49.890;5.930;2023-01-01T00:42:10;3.10;;;1.55;;
49840;SDS011;35738;49.890;5.930;2023-01-01T00:44:37;1.20;;;1.10;;
49840;SDS011;35738;49.890;5.930;2023-01-01T00:47:04;2.13;;;1.15;;
49840;SDS011;35738;49.890;5.930;2023-01-01T00:49:30;1.63;;;1.30;;
49840;SDS011;35738;49.890;5.930;2023-01-01T00:51:57;1.00;;;1.00;;
49840;SDS011;35738;49.890;5.930;2023-01-01T00:54:23;1.33;;;1.20;;
49840;SDS011;35738;49.890;5.930;2023-01-01T00:56:50;1.42;;;1.20;;
49840;SDS011;35738;49.890;5.930;2023-01-01T00:59:17;2.60;;;1.55;;
49840;SDS011;35738;49.890;5.930;2023-01-01T01:01:49;4.15;;;1.30;;
49840;SDS011;35738;49.890;5.930;2023-01-01T01:04:15;1.08;;;1.08;;
49840;SDS011;35738;49.890;5.930;2023-01-01T01:06:42;2.45;;;1.30;;
49840;SDS011;35738;49.890;5.930;2023-01-01T01:09:09;1.42;;;1.33;;
49840;SDS011;35738;49.890;5.930;2023-01-01T01:11:35;1.88;;;1.20;;
49840;SDS011;35738;49.890;5.930;2023-01-01T01:14:02;2.08;;;1.30;;
49840;SDS011;35738;49.890;5.930;2023-01-01T01:16:30;3.60;;;1.40;;
49840;SDS011;35738;49.890;5.930;2023-01-01T01:18:58;1.35;;;1.25;;
49840;SDS011;35738;49.890;5.930;2023-01-01T01:21:28;1.40;;;1.30;;
49840;SDS011;35738;49.890;5.930;2023-01-01T01:23:56;1.48;;;1.38;;
49840;SDS011;35738;49.890;5.930;2023-01-01T01:26:28;1.27;;;1.20;;
49840;SDS011;35738;49.890;5.930;2023-01-01T01:28:57;1.17;;;1.17;;
49840;SDS011;35738;49.890;5.930;2023-01-01T01:31:28;2.17;;;1.40;;
49840;SDS011;35738;49.890;5.930;2023-01-01T01:33:57;2.67;;;1.13;;
49840;SDS011;35738;49.890;5.930;2023-01-01T01:36:24;1.20;;;1.15;;
49840;SDS011;35738;49.890;5.930;2023-01-01T01:38:52;1.88;;;1.25;;
49840;SDS011;35738;49.890;5.930;2023-01-01T01:41:20;1.58;;;1.40;;
49840;SDS011;35738;49.890;5.930;2023-01-01T01:43:55;2.63;;;1.40;;
49840;SDS011;35738;49.890;5.930;2023-01-01T01:46:31;1.58;;;1.25;;
49840;SDS011;35738;49.890;5.930;2023-01-01T01:49:12;3.08;;;1.20;;
49840;SDS011;35738;49.890;5.930;2023-01-01T01:51:41;1.45;;;1.35;;
49840;SDS011;35738;49.890;5.930;2023-01-01T01:54:11;3.60;;;1.42;;
49840;SDS011;35738;49.890;5.930;2023-01-01T01:56:49;2.03;;;1.40;;
49840;SDS011;35738;49.890;5.930;2023-01-01T01:59:20;2.70;;;1.23;;
49840;SDS011;35738;49.890;5.930;2023-01-01T02:01:50;2.05;;;1.23;;
49840;SDS011;35738;49.890;5.930;2023-01-01T02:04:18;3.17;;;1.50;;
49840;SDS011;35738;49.890;5.930;2023-01-01T02:06:45;1.65;;;1.27;;
49840;SDS011;35738;49.890;5.930;2023-01-01T02:09:12;1.88;;;1.30;;
49840;SDS011;35738;49.890;5.930;2023-01-01T02:11:39;1.45;;;1.35;;
49840;SDS011;35738;49.890;5.930;2023-01-01T02:14:06;3.92;;;1.42;;
49840;SDS011;35738;49.890;5.930;2023-01-01T02:19:29;1.98;;;1.50;;
49840;SDS011;35738;49.890;5.930;2023-01-01T02:25:47;2.65;;;1.70;;
49840;SDS011;35738;49.890;5.930;2023-01-01T02:28:47;3.00;;;1.45;;
49840;SDS011;35738;49.890;5.930;2023-01-01T02:31:12;5.00;;;1.70;;
49840;SDS011;35738;49.890;5.930;2023-01-01T02:33:48;2.30;;;1.33;;
49840;SDS011;35738;49.890;5.930;2023-01-01T02:36:18;2.45;;;1.40;;
49840;SDS011;35738;49.890;5.930;2023-01-01T02:38:47;2.20;;;1.40;;
49840;SDS011;35738;49.890;5.930;2023-01-01T02:41:19;2.70;;;1.80;;
49840;SDS011;35738;49.890;5.930;2023-01-01T02:43:50;1.50;;;1.40;;
49840;SDS011;35738;49.890;5.930;2023-01-01T02:46:17;2.45;;;1.45;;
49840;SDS011;35738;49.890;5.930;2023-01-01T02:48:43;2.00;;;1.52;;
49840;SDS011;35738;49.890;5.930;2023-01-01T02:56:50;1.40;;;1.30;;
49840;SDS011;35738;49.890;5.930;2023-01-01T03:07:40;2.65;;;1.60;;
49840;SDS011;35738;49.890;5.930;2023-01-01T03:10:10;2.53;;;1.40;;
49840;SDS011;35738;49.890;5.930;2023-01-01T03:13:01;2.25;;;1.50;;
49840;SDS011;35738;49.890;5.930;2023-01-01T03:20:39;1.67;;;1.50;;
49840;SDS011;35738;49.890;5.930;2023-01-01T03:23:12;2.30;;;1.75;;
49840;SDS011;35738;49.890;5.930;2023-01-01T03:25:44;3.13;;;1.65;;
49840;SDS011;35738;49.890;5.930;2023-01-01T03:28:16;3.58;;;1.50;;
49840;SDS011;35738;49.890;5.930;2023-01-01T03:30:47;2.78;;;1.70;;
49840;SDS011;35738;49.890;5.930;2023-01-01T03:33:20;4.10;;;1.70;;
49840;SDS011;35738;49.890;5.930;2023-01-01T03:35:49;3.22;;;1.58;;
49840;SDS011;35738;49.890;5.930;2023-01-01T03:38:32;3.72;;;2.00;;
49840;SDS011;35738;49.890;5.930;2023-01-01T03:41:16;2.60;;;1.88;;
49840;SDS011;35738;49.890;5.930;2023-01-01T03:46:29;6.18;;;1.75;;
49840;SDS011;35738;49.890;5.930;2023-01-01T03:48:58;5.15;;;1.60;;
49840;SDS011;35738;49.890;5.930;2023-01-01T03:51:39;2.88;;;1.38;;
49840;SDS011;35738;49.890;5.930;2023-01-01T03:59:33;4.20;;;1.88;;
49840;SDS011;35738;49.890;5.930;2023-01-01T04:02:06;2.08;;;1.63;;
49840;SDS011;35738;49.890;5.930;2023-01-01T04:04:36;3.80;;;1.80;;
49840;SDS011;35738;49.890;5.930;2023-01-01T04:07:03;2.13;;;1.58;;
49840;SDS011;35738;49.890;5.930;2023-01-01T04:09:40;2.35;;;2.00;;
49840;SDS011;35738;49.890;5.930;2023-01-01T04:12:14;3.33;;;1.73;;
49840;SDS011;35738;49.890;5.930;2023-01-01T04:14:42;3.25;;;1.60;;
49840;SDS011;35738;49.890;5.930;2023-01-01T04:17:09;4.00;;;2.35;;
49840;SDS011;35738;49.890;5.930;2023-01-01T04:19:37;4.07;;;1.95;;
49840;SDS011;35738;49.890;5.930;2023-01-01T04:22:04;3.38;;;1.80;;
49840;SDS011;35738;49.890;5.930;2023-01-01T04:24:31;3.25;;;1.70;;
49840;SDS011;35738;49.890;5.930;2023-01-01T04:26:58;4.72;;;1.40;;
49840;SDS011;35738;49.890;5.930;2023-01-01T04:29:24;2.58;;;1.85;;
49840;SDS011;35738;49.890;5.930;2023-01-01T04:31:51;4.18;;;1.83;;
49840;SDS011;35738;49.890;5.930;2023-01-01T04:34:18;3.40;;;1.83;;
49840;SDS011;35738;49.890;5.930;2023-01-01T04:36:44;2.45;;;1.80;;
49840;SDS011;35738;49.890;5.930;2023-01-01T04:39:11;3.30;;;1.60;;
49840;SDS011;35738;49.890;5.930;2023-01-01T04:41:39;3.33;;;1.75;;
49840;SDS011;35738;49.890;5.930;2023-01-01T04:44:06;3.80;;;1.85;;
49840;SDS011;35738;49.890;5.930;2023-01-01T04:46:33;1.58;;;1.48;;
49840;SDS011;35738;49.890;5.930;2023-01-01T04:49:00;4.05;;;2.13;;
49840;SDS011;35738;49.890;5.930;2023-01-01T04:51:26;3.03;;;1.75;;
49840;SDS011;35738;49.890;5.930;2023-01-01T04:53:53;4.07;;;1.77;;
49840;SDS011;35738;49.890;5.930;2023-01-01T04:56:20;5.32;;;1.85;;
49840;SDS011;35738;49.890;5.930;2023-01-01T04:58:47;2.58;;;1.58;;
49840;SDS011;35738;49.890;5.930;2023-01-01T05:01:22;3.75;;;2.00;;
49840;SDS011;35738;49.890;5.930;2023-01-01T05:03:51;2.95;;;1.67;;
49840;SDS011;35738;49.890;5.930;2023-01-01T05:06:18;4.25;;;2.03;;
49840;SDS011;35738;49.890;5.930;2023-01-01T05:08:46;4.93;;;3.00;;
49840;SDS011;35738;49.890;5.930;2023-01-01T05:11:15;4.20;;;1.90;;
49840;SDS011;35738;49.890;5.930;2023-01-01T05:13:45;4.18;;;2.00;;
49840;SDS011;35738;49.890;5.930;2023-01-01T05:16:14;3.47;;;1.90;;
49840;SDS011;35738;49.890;5.930;2023-01-01T05:18:42;5.13;;;1.90;;
49840;SDS011;35738;49.890;5.930;2023-01-01T05:21:11;4.15;;;2.13;;
49840;SDS011;35738;49.890;5.930;2023-01-01T05:23:40;5.78;;;2.10;;
49840;SDS011;35738;49.890;5.930;2023-01-01T05:26:17;4.97;;;2.08;;
49840;SDS011;35738;49.890;5.930;2023-01-01T05:28:46;3.70;;;1.80;;
49840;SDS011;35738;49.890;5.930;2023-01-01T05:31:14;4.40;;;2.00;;
49840;SDS011;35738;49.890;5.930;2023-01-01T05:33:44;4.43;;;2.13;;
49840;SDS011;35738;49.890;5.930;2023-01-01T05:36:16;5.57;;;2.20;;
49840;SDS011;35738;49.890;5.930;2023-01-01T05:38:44;3.60;;;1.85;;
49840;SDS011;35738;49.890;5.930;2023-01-01T05:41:12;4.25;;;1.88;;
49840;SDS011;35738;49.890;5.930;2023-01-01T05:43:40;5.20;;;1.90;;
49840;SDS011;35738;49.890;5.930;2023-01-01T05:46:15;5.22;;;2.05;;
49840;SDS011;35738;49.890;5.930;2023-01-01T05:48:43;7.90;;;2.00;;
49840;SDS011;35738;49.890;5.930;2023-01-01T05:51:11;4.90;;;2.20;;
49840;SDS011;35738;49.890;5.930;2023-01-01T05:53:39;7.30;;;1.90;;
49840;SDS011;35738;49.890;5.930;2023-01-01T05:56:06;5.35;;;2.00;;
49840;SDS011;35738;49.890;5.930;2023-01-01T05:58:33;4.50;;;2.17;;
49840;SDS011;35738;49.890;5.930;2023-01-01T06:04:08;5.50;;;2.00;;
49840;SDS011;35738;49.890;5.930;2023-01-01T06:06:35;3.33;;;1.90;;
49840;SDS011;35738;49.890;5.930;2023-01-01T06:09:02;4.57;;;2.67;;
49840;SDS011;35738;49.890;5.930;2023-01-01T06:11:30;5.40;;;2.13;;
49840;SDS011;35738;49.890;5.930;2023-01-01T06:13:58;4.63;;;2.00;;
49840;SDS011;35738;49.890;5.930;2023-01-01T06:16:25;4.45;;;2.10;;
49840;SDS011;35738;49.890;5.930;2023-01-01T06:18:53;3.72;;;1.90;;
49840;SDS011;35738;49.890;5.930;2023-01-01T06:21:21;3.63;;;1.98;;
49840;SDS011;35738;49.890;5.930;2023-01-01T06:23:49;5.97;;;2.17;;
49840;SDS011;35738;49.890;5.930;2023-01-01T06:26:18;2.90;;;2.10;;
49840;SDS011;35738;49.890;5.930;2023-01-01T06:28:47;2.60;;;1.63;;
49840;SDS011;35738;49.890;5.930;2023-01-01T06:31:15;5.25;;;2.05;;
49840;SDS011;35738;49.890;5.930;2023-01-01T06:33:43;5.47;;;2.10;;
49840;SDS011;35738;49.890;5.930;2023-01-01T06:36:12;5.75;;;1.92;;
49840;SDS011;35738;49.890;5.930;2023-01-01T06:38:40;8.40;;;2.50;;
49840;SDS011;35738;49.890;5.930;2023-01-01T06:41:10;3.85;;;1.70;;
49840;SDS011;35738;49.890;5.930;2023-01-01T06:43:47;6.53;;;2.65;;
49840;SDS011;35738;49.890;5.930;2023-01-01T06:48:45;5.97;;;2.10;;
49840;SDS011;35738;49.890;5.930;2023-01-01T06:51:15;4.88;;;1.92;;
49840;SDS011;35738;49.890;5.930;2023-01-01T06:53:49;3.97;;;2.30;;
49840;SDS011;35738;49.890;5.930;2023-01-01T06:56:16;4.32;;;2.40;;
49840;SDS011;35738;49.890;5.930;2023-01-01T06:58:43;4.15;;;2.30;;
49840;SDS011;35738;49.890;5.930;2023-01-01T07:01:11;3.80;;;2.13;;
49840;SDS011;35738;49.890;5.930;2023-01-01T07:03:43;5.85;;;2.33;;
49840;SDS011;35738;49.890;5.930;2023-01-01T07:06:15;7.88;;;2.60;;
49840;SDS011;35738;49.890;5.930;2023-01-01T07:08:41;8.80;;;2.63;;
49840;SDS011;35738;49.890;5.930;2023-01-01T07:11:08;5.43;;;2.13;;
49840;SDS011;35738;49.890;5.930;2023-01-01T07:13:34;5.60;;;2.25;;
49840;SDS011;35738;49.890;5.930;2023-01-01T07:16:01;5.47;;;2.20;;
49840;SDS011;35738;49.890;5.930;2023-01-01T07:18:37;6.53;;;2.60;;
49840;SDS011;35738;49.890;5.930;2023-01-01T07:21:04;8.88;;;2.70;;
49840;SDS011;35738;49.890;5.930;2023-01-01T07:23:33;7.68;;;2.90;;
49840;SDS011;35738;49.890;5.930;2023-01-01T07:26:00;8.18;;;2.60;;
49840;SDS011;35738;49.890;5.930;2023-01-01T07:28:27;5.38;;;2.45;;
49840;SDS011;35738;49.890;5.930;2023-01-01T07:30:53;4.97;;;2.40;;
49840;SDS011;35738;49.890;5.930;2023-01-01T07:33:21;6.22;;;2.50;;
49840;SDS011;35738;49.890;5.930;2023-01-01T07:35:49;8.07;;;2.72;;
49840;SDS011;35738;49.890;5.930;2023-01-01T07:38:16;6.35;;;2.22;;
49840;SDS011;35738;49.890;5.930;2023-01-01T07:40:42;4.68;;;2.55;;
49840;SDS011;35738;49.890;5.930;2023-01-01T07:43:09;5.95;;;2.60;;
49840;SDS011;35738;49.890;5.930;2023-01-01T07:45:37;8.00;;;3.03;;
49840;SDS011;35738;49.890;5.930;2023-01-01T07:48:04;6.18;;;2.45;;
49840;SDS011;35738;49.890;5.930;2023-01-01T08:12:57;7.50;;;2.80;;
49840;SDS011;35738;49.890;5.930;2023-01-01T08:15:24;6.20;;;2.85;;
49840;SDS011;35738;49.890;5.930;2023-01-01T08:17:55;5.28;;;2.58;;
49840;SDS011;35738;49.890;5.930;2023-01-01T08:20:23;9.05;;;2.70;;
49840;SDS011;35738;49.890;5.930;2023-01-01T08:22:50;6.78;;;2.80;;
49840;SDS011;35738;49.890;5.930;2023-01-01T08:25:17;7.65;;;2.60;;
49840;SDS011;35738;49.890;5.930;2023-01-01T08:27:44;8.50;;;2.85;;
49840;SDS011;35738;49.890;5.930;2023-01-01T08:30:11;9.30;;;3.17;;
49840;SDS011;35738;49.890;5.930;2023-01-01T08:32:40;6.30;;;2.80;;
49840;SDS011;35738;49.890;5.930;2023-01-01T08:35:07;7.38;;;3.00;;
49840;SDS011;35738;49.890;5.930;2023-01-01T08:37:35;6.43;;;2.65;;
49840;SDS011;35738;49.890;5.930;2023-01-01T08:40:01;7.20;;;2.80;;
49840;SDS011;35738;49.890;5.930;2023-01-01T08:42:28;6.05;;;2.55;;
49840;SDS011;35738;49.890;5.930;2023-01-01T08:44:55;5.60;;;2.47;;
49840;SDS011;35738;49.890;5.930;2023-01-01T08:47:22;3.92;;;2.60;;
49840;SDS011;35738;49.890;5.930;2023-01-01T08:49:51;6.15;;;2.72;;
49840;SDS011;35738;49.890;5.930;2023-01-01T08:52:17;5.00;;;2.95;;
49840;SDS011;35738;49.890;5.930;2023-01-01T08:54:44;7.25;;;2.55;;
49840;SDS011;35738;49.890;5.930;2023-01-01T08:57:11;6.63;;;2.70;;
49840;SDS011;35738;49.890;5.930;2023-01-01T08:59:38;6.38;;;2.65;;
49840;SDS011;35738;49.890;5.930;2023-01-01T09:02:05;5.22;;;2.50;;
49840;SDS011;35738;49.890;5.930;2023-01-01T09:04:32;6.32;;;2.78;;
49840;SDS011;35738;49.890;5.930;2023-01-01T09:06:59;6.93;;;2.80;;
49840;SDS011;35738;49.890;5.930;2023-01-01T09:09:26;4.25;;;2.65;;
49840;SDS011;35738;49.890;5.930;2023-01-01T09:11:57;7.03;;;2.85;;
49840;SDS011;35738;49.890;5.930;2023-01-01T09:14:29;5.97;;;2.53;;
49840;SDS011;35738;49.890;5.930;2023-01-01T09:16:56;3.38;;;2.33;;
49840;SDS011;35738;49.890;5.930;2023-01-01T09:19:23;7.20;;;2.80;;
49840;SDS011;35738;49.890;5.930;2023-01-01T09:21:54;5.80;;;2.50;;
49840;SDS011;35738;49.890;5.930;2023-01-01T09:24:21;7.88;;;2.70;;
49840;SDS011;35738;49.890;5.930;2023-01-01T09:26:48;5.72;;;2.60;;
49840;SDS011;35738;49.890;5.930;2023-01-01T09:29:15;4.75;;;2.38;;
49840;SDS011;35738;49.890;5.930;2023-01-01T09:31:44;8.20;;;2.20;;
49840;SDS011;35738;49.890;5.930;2023-01-01T09:34:10;7.05;;;2.67;;
49840;SDS011;35738;49.890;5.930;2023-01-01T09:36:37;6.15;;;2.55;;
49840;SDS011;35738;49.890;5.930;2023-01-01T09:39:04;6.47;;;2.45;;
49840;SDS011;35738;49.890;5.930;2023-01-01T09:47:36;5.95;;;2.35;;
49840;SDS011;35738;49.890;5.930;2023-01-01T09:50:16;6.20;;;2.35;;
49840;SDS011;35738;49.890;5.930;2023-01-01T09:52:57;4.47;;;2.42;;
49840;SDS011;35738;49.890;5.930;2023-01-01T09:56:10;6.88;;;2.60;;
49840;SDS011;35738;49.890;5.930;2023-01-01T09:58:20;5.60;;;2.45;;
49840;SDS011;35738;49.890;5.930;2023-01-01T10:00:51;6.30;;;2.10;;
49840;SDS011;35738;49.890;5.930;2023-01-01T10:03:24;7.75;;;2.53;;
49840;SDS011;35738;49.890;5.930;2023-01-01T10:14:04;5.85;;;2.63;;
49840;SDS011;35738;49.890;5.930;2023-01-01T10:16:56;3.97;;;2.28;;
49840;SDS011;35738;49.890;5.930;2023-01-01T10:22:05;4.63;;;2.50;;
49840;SDS011;35738;49.890;5.930;2023-01-01T10:24:39;5.40;;;2.78;;
49840;SDS011;35738;49.890;5.930;2023-01-01T10:27:20;8.45;;;2.58;;
49840;SDS011;35738;49.890;5.930;2023-01-01T10:29:51;7.15;;;2.33;;
49840;SDS011;35738;49.890;5.930;2023-01-01T10:32:27;5.97;;;2.50;;
49840;SDS011;35738;49.890;5.930;2023-01-01T10:35:01;4.55;;;2.67;;
49840;SDS011;35738;49.890;5.930;2023-01-01T10:37:35;7.47;;;2.63;;
49840;SDS011;35738;49.890;5.930;2023-01-01T10:40:25;7.05;;;2.55;;
49840;SDS011;35738;49.890;5.930;2023-01-01T10:42:55;6.13;;;2.45;;
49840;SDS011;35738;49.890;5.930;2023-01-01T10:45:30;6.93;;;2.70;;
49840;SDS011;35738;49.890;5.930;2023-01-01T10:48:17;9.70;;;2.38;;
49840;SDS011;35738;49.890;5.930;2023-01-01T10:53:28;10.18;;;2.75;;
49840;SDS011;35738;49.890;5.930;2023-01-01T10:56:07;5.35;;;2.55;;
49840;SDS011;35738;49.890;5.930;2023-01-01T11:01:07;4.82;;;2.42;;
49840;SDS011;35738;49.890;5.930;2023-01-01T11:03:36;6.82;;;2.40;;
49840;SDS011;35738;49.890;5.930;2023-01-01T11:06:28;5.72;;;2.42;;
49840;SDS011;35738;49.890;5.930;2023-01-01T11:08:59;8.07;;;2.72;;
49840;SDS011;35738;49.890;5.930;2023-01-01T11:11:41;3.58;;;2.40;;
49840;SDS011;35738;49.890;5.930;2023-01-01T11:14:20;9.95;;;2.75;;
49840;SDS011;35738;49.890;5.930;2023-01-01T11:16:50;4.85;;;2.15;;
49840;SDS011;35738;49.890;5.930;2023-01-01T11:19:28;5.95;;;2.20;;
49840;SDS011;35738;49.890;5.930;2023-01-01T11:21:57;4.88;;;2.03;;
49840;SDS011;35738;49.890;5.930;2023-01-01T11:24:25;8.73;;;2.50;;
49840;SDS011;35738;49.890;5.930;2023-01-01T11:29:47;6.07;;;2.40;;
49840;SDS011;35738;49.890;5.930;2023-01-01T11:32:16;6.70;;;2.30;;
49840;SDS011;35738;49.890;5.930;2023-01-01T11:34:56;5.50;;;2.20;;
49840;SDS011;35738;49.890;5.930;2023-01-01T11:37:29;7.20;;;2.30;;
49840;SDS011;35738;49.890;5.930;2023-01-01T11:40:01;6.65;;;2.22;;
49840;SDS011;35738;49.890;5.930;2023-01-01T11:42:30;7.35;;;2.20;;
49840;SDS011;35738;49.890;5.930;2023-01-01T11:45:01;4.60;;;2.00;;
49840;SDS011;35738;49.890;5.930;2023-01-01T11:47:40;4.85;;;1.88;;
49840;SDS011;35738;49.890;5.930;2023-01-01T11:53:18;4.68;;;1.75;;
49840;SDS011;35738;49.890;5.930;2023-01-01T11:55:49;4.18;;;1.80;;
49840;SDS011;35738;49.890;5.930;2023-01-01T11:58:22;3.40;;;1.63;;
49840;SDS011;35738;49.890;5.930;2023-01-01T12:00:58;4.53;;;2.08;;
49840;SDS011;35738;49.890;5.930;2023-01-01T12:03:39;3.85;;;1.50;;
49840;SDS011;35738;49.890;5.930;2023-01-01T12:06:17;4.05;;;1.60;;
49840;SDS011;35738;49.890;5.930;2023-01-01T12:11:35;4.88;;;1.70;;
49840;SDS011;35738;49.890;5.930;2023-01-01T12:14:18;3.92;;;2.00;;
49840;SDS011;35738;49.890;5.930;2023-01-01T12:16:59;2.53;;;1.60;;
49840;SDS011;35738;49.890;5.930;2023-01-01T12:19:35;5.10;;;1.60;;
49840;SDS011;35738;49.890;5.930;2023-01-01T12:22:17;4.28;;;2.00;;
49840;SDS011;35738;49.890;5.930;2023-01-01T12:24:45;5.85;;;2.40;;
49840;SDS011;35738;49.890;5.930;2023-01-01T12:27:36;8.00;;;2.17;;
49840;SDS011;35738;49.890;5.930;2023-01-01T12:30:23;5.63;;;1.98;;
49840;SDS011;35738;49.890;5.930;2023-01-01T12:33:01;6.50;;;1.98;;
49840;SDS011;35738;49.890;5.930;2023-01-01T12:41:31;6.50;;;2.40;;
49840;SDS011;35738;49.890;5.930;2023-01-01T12:47:22;5.00;;;2.20;;
49840;SDS011;35738;49.890;5.930;2023-01-01T12:52:49;5.55;;;2.10;;
49840;SDS011;35738;49.890;5.930;2023-01-01T12:55:39;4.85;;;2.45;;
49840;SDS011;35738;49.890;5.930;2023-01-01T13:01:13;7.18;;;2.42;;
49840;SDS011;35738;49.890;5.930;2023-01-01T13:06:15;4.95;;;2.38;;
49840;SDS011;35738;49.890;5.930;2023-01-01T13:08:55;5.32;;;2.28;;
49840;SDS011;35738;49.890;5.930;2023-01-01T13:11:27;9.70;;;2.60;;
49840;SDS011;35738;49.890;5.930;2023-01-01T13:13:54;6.20;;;2.75;;
49840;SDS011;35738;49.890;5.930;2023-01-01T13:16:34;7.80;;;2.63;;
49840;SDS011;35738;49.890;5.930;2023-01-01T13:19:04;7.68;;;2.45;;
49840;SDS011;35738;49.890;5.930;2023-01-01T13:21:31;4.90;;;2.30;;
49840;SDS011;35738;49.890;5.930;2023-01-01T13:24:04;7.22;;;2.72;;
49840;SDS011;35738;49.890;5.930;2023-01-01T13:26:44;6.68;;;2.72;;
49840;SDS011;35738;49.890;5.930;2023-01-01T13:45:42;5.78;;;2.53;;
49840;SDS011;35738;49.890;5.930;2023-01-01T13:48:41;4.65;;;2.20;;
49840;SDS011;35738;49.890;5.930;2023-01-01T13:51:19;8.25;;;2.40;;
49840;SDS011;35738;49.890;5.930;2023-01-01T13:57:14;6.45;;;2.30;;
49840;SDS011;35738;49.890;5.930;2023-01-01T14:00:21;6.05;;;2.38;;
49840;SDS011;35738;49.890;5.930;2023-01-01T14:02:52;4.07;;;2.08;;
49840;SDS011;35738;49.890;5.930;2023-01-01T14:08:01;4.28;;;2.08;;
49840;SDS011;35738;49.890;5.930;2023-01-01T14:10:35;5.30;;;2.60;;
49840;SDS011;35738;49.890;5.930;2023-01-01T14:15:32;8.23;;;2.70;;
49840;SDS011;35738;49.890;5.930;2023-01-01T14:18:03;6.25;;;2.50;;
49840;SDS011;35738;49.890;5.930;2023-01-01T14:20:42;4.75;;;2.33;;
49840;SDS011;35738;49.890;5.930;2023-01-01T14:23:13;7.85;;;2.92;;
49840;SDS011;35738;49.890;5.930;2023-01-01T14:25:48;6.85;;;2.42;;
49840;SDS011;35738;49.890;5.930;2023-01-01T14:28:19;4.80;;;2.60;;
49840;SDS011;35738;49.890;5.930;2023-01-01T14:30:51;5.43;;;2.47;;
49840;SDS011;35738;49.890;5.930;2023-01-01T14:33:26;6.15;;;2.60;;
49840;SDS011;35738;49.890;5.930;2023-01-01T14:35:55;3.40;;;2.75;;
49840;SDS011;35738;49.890;5.930;2023-01-01T14:38:24;5.18;;;2.10;;
49840;SDS011;35738;49.890;5.930;2023-01-01T14:43:42;6.72;;;2.60;;
49840;SDS011;35738;49.890;5.930;2023-01-01T14:46:21;5.07;;;2.70;;
49840;SDS011;35738;49.890;5.930;2023-01-01T14:48:56;6.60;;;2.90;;
49840;SDS011;35738;49.890;5.930;2023-01-01T14:51:26;6.00;;;2.97;;
49840;SDS011;35738;49.890;5.930;2023-01-01T14:53:55;6.75;;;3.10;;
49840;SDS011;35738;49.890;5.930;2023-01-01T14:56:26;8.57;;;3.08;;
49840;SDS011;35738;49.890;5.930;2023-01-01T15:02:02;3.55;;;3.00;;
49840;SDS011;35738;49.890;5.930;2023-01-01T15:04:41;6.00;;;3.00;;
49840;SDS011;35738;49.890;5.930;2023-01-01T15:10:04;9.48;;;3.83;;
49840;SDS011;35738;49.890;5.930;2023-01-01T15:12:32;6.65;;;3.38;;
49840;SDS011;35738;49.890;5.930;2023-01-01T15:14:59;9.90;;;3.60;;
49840;SDS011;35738;49.890;5.930;2023-01-01T15:17:26;8.95;;;4.00;;
49840;SDS011;35738;49.890;5.930;2023-01-01T15:20:04;7.47;;;3.60;;
49840;SDS011;35738;49.890;5.930;2023-01-01T15:22:44;8.02;;;3.88;;
49840;SDS011;35738;49.890;5.930;2023-01-01T15:25:12;4.65;;;3.40;;
49840;SDS011;35738;49.890;5.930;2023-01-01T15:27:41;8.90;;;3.90;;
49840;SDS011;35738;49.890;5.930;2023-01-01T15:32:48;9.52;;;4.15;;
49840;SDS011;35738;49.890;5.930;2023-01-01T15:35:18;6.13;;;3.60;;
49840;SDS011;35738;49.890;5.930;2023-01-01T15:38:00;8.70;;;4.03;;
49840;SDS011;35738;49.890;5.930;2023-01-01T15:40:35;9.73;;;5.70;;
49840;SDS011;35738;49.890;5.930;2023-01-01T15:45:35;11.52;;;4.30;;
49840;SDS011;35738;49.890;5.930;2023-01-01T15:48:16;9.55;;;4.47;;
49840;SDS011;35738;49.890;5.930;2023-01-01T15:53:20;10.38;;;4.57;;
49840;SDS011;35738;49.890;5.930;2023-01-01T15:58:31;8.27;;;4.63;;
49840;SDS011;35738;49.890;5.930;2023-01-01T16:01:01;7.50;;;4.70;;
49840;SDS011;35738;49.890;5.930;2023-01-01T16:03:31;9.82;;;4.82;;
49840;SDS011;35738;49.890;5.930;2023-01-01T16:06:01;8.73;;;5.00;;
49840;SDS011;35738;49.890;5.930;2023-01-01T16:08:28;8.95;;;4.65;;
49840;SDS011;35738;49.890;5.930;2023-01-01T16:10:54;10.75;;;4.63;;
49840;SDS011;35738;49.890;5.930;2023-01-01T16:13:21;6.35;;;4.20;;
49840;SDS011;35738;49.890;5.930;2023-01-01T16:15:52;10.13;;;4.85;;
49840;SDS011;35738;49.890;5.930;2023-01-01T16:18:19;11.63;;;5.03;;
49840;SDS011;35738;49.890;5.930;2023-01-01T16:20:54;8.32;;;4.72;;
49840;SDS011;35738;49.890;5.930;2023-01-01T16:23:21;7.95;;;4.97;;
49840;SDS011;35738;49.890;5.930;2023-01-01T16:25:47;9.80;;;4.75;;
49840;SDS011;35738;49.890;5.930;2023-01-01T16:28:14;14.30;;;7.47;;
49840;SDS011;35738;49.890;5.930;2023-01-01T16:30:41;18.13;;;7.93;;
49840;SDS011;35738;49.890;5.930;2023-01-01T16:33:13;8.35;;;5.15;;
49840;SDS011;35738;49.890;5.930;2023-01-01T16:35:44;7.88;;;4.82;;
49840;SDS011;35738;49.890;5.930;2023-01-01T16:38:11;6.53;;;4.93;;
49840;SDS011;35738;49.890;5.930;2023-01-01T16:40:38;8.65;;;4.47;;
49840;SDS011;35738;49.890;5.930;2023-01-01T16:43:05;10.57;;;4.85;;
49840;SDS011;35738;49.890;5.930;2023-01-01T16:45:35;9.02;;;5.53;;
49840;SDS011;35738;49.890;5.930;2023-01-01T16:48:01;10.88;;;6.00;;
49840;SDS011;35738;49.890;5.930;2023-01-01T16:50:28;9.02;;;5.30;;
49840;SDS011;35738;49.890;5.930;2023-01-01T16:52:55;8.68;;;5.03;;
49840;SDS011;35738;49.890;5.930;2023-01-01T16:55:21;9.70;;;5.47;;
49840;SDS011;35738;49.890;5.930;2023-01-01T16:57:48;9.48;;;4.93;;
49840;SDS011;35738;49.890;5.930;2023-01-01T17:00:14;11.30;;;5.25;;
49840;SDS011;35738;49.890;5.930;2023-01-01T17:02:41;10.48;;;5.15;;
49840;SDS011;35738;49.890;5.930;2023-01-01T17:05:09;12.13;;;5.35;;
49840;SDS011;35738;49.890;5.930;2023-01-01T17:07:36;11.38;;;5.07;;
49840;SDS011;35738;49.890;5.930;2023-01-01T17:10:02;9.80;;;5.07;;
49840;SDS011;35738;49.890;5.930;2023-01-01T17:12:30;9.70;;;5.68;;
49840;SDS011;35738;49.890;5.930;2023-01-01T17:14:57;10.63;;;5.55;;
49840;SDS011;35738;49.890;5.930;2023-01-01T17:17:23;10.02;;;5.10;;
49840;SDS011;35738;49.890;5.930;2023-01-01T17:19:50;8.90;;;5.13;;
49840;SDS011;35738;49.890;5.930;2023-01-01T17:22:17;12.98;;;6.10;;
49840;SDS011;35738;49.890;5.930;2023-01-01T17:24:43;12.00;;;6.05;;
49840;SDS011;35738;49.890;5.930;2023-01-01T17:27:10;12.63;;;5.95;;
49840;SDS011;35738;49.890;5.930;2023-01-01T17:29:36;11.30;;;5.20;;
49840;SDS011;35738;49.890;5.930;2023-01-01T17:32:03;9.23;;;5.45;;
49840;SDS011;35738;49.890;5.930;2023-01-01T17:34:30;10.95;;;5.85;;
49840;SDS011;35738;49.890;5.930;2023-01-01T17:36:56;9.88;;;5.57;;
49840;SDS011;35738;49.890;5.930;2023-01-01T17:39:23;10.43;;;6.85;;
49840;SDS011;35738;49.890;5.930;2023-01-01T17:41:49;12.48;;;6.57;;